Time;durP1;ratioP1;P1;durP2;ratioP2;P2;SDS_P1;SDS_P2;PMS_P1;PMS_P2;Temp;Humidity;BMP_temperature;BMP_pressure;BME280_temperature;BME280_humidity;BME280_pressure;Samples;Min_cycle;Max_cycle;Signal;HPM_P1;HPM_P2
2021/05/14 00:01:36;;;;;;;19.63;10.80;;;;;;;7.66;100.00;99587.88;5119680;28;20023;-83
2021/05/14 00:04:02;;;;;;;18.95;11.57;;;;;;;7.60;100.00;99578.53;5119466;28;20033;-83
2021/05/14 00:06:27;;;;;;;23.40;11.77;;;;;;;7.58;100.00;99588.06;5118115;28;20023;-83
2021/05/14 00:08:52;;;;;;;22.35;12.85;;;;;;;7.57;100.00;99586.34;5117897;28;20031;-83
2021/05/14 00:11:17;;;;;;;19.63;13.18;;;;;;;7.51;100.00;99586.47;5117183;28;20118;-83
2021/05/14 00:13:43;;;;;;;18.63;12.15;;;;;;;7.48;100.00;99589.09;5117411;28;20073;-83
2021/05/14 00:16:09;;;;;;;21.63;13.00;;;;;;;7.53;100.00;99587.28;5119721;28;20482;-83
2021/05/14 00:18:34;;;;;;;20.90;12.57;;;;;;;7.46;100.00;99591.75;5118176;28;20024;-83
2021/05/14 00:21:00;;;;;;;25.33;14.60;;;;;;;7.54;100.00;99594.13;5118421;28;20580;-83
2021/05/14 00:23:25;;;;;;;22.10;14.02;;;;;;;7.54;100.00;99594.13;5118680;28;20055;-83
2021/05/14 00:25:50;;;;;;;21.60;14.20;;;;;;;7.50;100.00;99589.94;5119585;28;20362;-84
2021/05/14 00:28:15;;;;;;;24.65;14.70;;;;;;;7.51;100.00;99596.78;5118634;28;20032;-84
2021/05/14 00:30:41;;;;;;;21.55;13.40;;;;;;;7.50;100.00;99585.63;5119035;28;20027;-84
2021/05/14 00:33:06;;;;;;;28.48;15.35;;;;;;;7.49;100.00;99591.69;5118748;28;20023;-83
2021/05/14 00:35:31;;;;;;;24.95;13.73;;;;;;;7.45;100.00;99592.63;5121737;28;20022;-83
2021/05/14 00:37:57;;;;;;;22.67;13.95;;;;;;;7.46;100.00;99591.75;5127164;28;20051;-83
2021/05/14 00:40:22;;;;;;;34.28;14.38;;;;;;;7.45;100.00;99592.63;5126271;28;20031;-82
2021/05/14 00:42:47;;;;;;;21.30;13.25;;;;;;;7.42;100.00;99591.81;5126181;28;20047;-83
2021/05/14 00:45:13;;;;;;;23.65;12.25;;;;;;;7.35;100.00;99586.78;5117011;28;20051;-83
2021/05/14 00:47:38;;;;;;;21.20;12.70;;;;;;;7.37;100.00;99590.19;5116367;28;20051;-83
2021/05/14 00:50:05;;;;;;;23.92;14.10;;;;;;;7.34;100.00;99598.00;5115404;28;20020;-84
2021/05/14 00:52:31;;;;;;;25.80;12.93;;;;;;;7.35;100.00;99596.25;5115306;28;20038;-83
2021/05/14 00:57:25;;;;;;;26.20;13.60;;;;;;;7.30;100.00;99592.94;5038628;28;20045;-82
2021/05/14 00:59:51;;;;;;;20.42;11.98;;;;;;;7.32;100.00;99589.44;5035633;28;20155;-82
2021/05/14 01:02:17;;;;;;;24.17;11.90;;;;;;;7.33;100.00;99590.31;5033872;28;20045;-82
2021/05/14 01:04:44;;;;;;;24.27;11.65;;;;;;;7.31;100.00;99594.63;5034299;28;20022;-81
2021/05/14 01:07:11;;;;;;;24.73;11.50;;;;;;;7.29;100.00;99591.22;5033688;28;20033;-82
2021/05/14 01:09:39;;;;;;;22.42;11.45;;;;;;;7.31;100.00;99592.91;5034573;28;20014;-82
2021/05/14 01:12:06;;;;;;;24.35;11.25;;;;;;;7.32;100.00;99591.16;5035349;28;20379;-82
2021/05/14 01:14:32;;;;;;;23.35;12.35;;;;;;;7.26;100.00;99591.28;5035318;28;20022;-82
2021/05/14 01:16:57;;;;;;;23.45;11.45;;;;;;;7.29;100.00;99591.22;5036525;28;20025;-82
2021/05/14 01:19:22;;;;;;;25.58;11.63;;;;;;;7.25;100.00;99595.59;5038787;28;20021;-82
2021/05/14 01:21:47;;;;;;;21.48;11.30;;;;;;;7.22;100.00;99595.66;5033401;28;20025;-82
2021/05/14 01:24:13;;;;;;;21.45;11.90;;;;;;;7.22;100.00;99589.66;5032857;28;20025;-83
2021/05/14 01:26:39;;;;;;;25.70;12.23;;;;;;;7.22;100.00;99590.50;5033002;28;20065;-82
2021/05/14 01:29:08;;;;;;;25.23;10.73;;;;;;;7.17;100.00;99587.16;5032772;28;20037;-81
2021/05/14 01:31:34;;;;;;;28.27;11.77;;;;;;;7.19;100.00;99587.16;5032876;28;20067;-82
2021/05/14 01:33:59;;;;;;;31.08;11.20;;;;;;;7.15;100.00;99586.38;5035991;28;20480;-82
2021/05/14 01:36:25;;;;;;;23.40;11.25;;;;;;;7.17;100.00;99584.59;5035565;28;20029;-81
2021/05/14 01:38:51;;;;;;;25.33;12.13;;;;;;;7.08;100.00;99589.91;5036309;28;20017;-82
2021/05/14 01:41:16;;;;;;;26.20;12.00;;;;;;;7.12;100.00;99579.53;5038811;28;20032;-82
2021/05/14 01:43:41;;;;;;;24.15;11.70;;;;;;;7.07;100.00;99583.91;5034044;28;20048;-82
2021/05/14 01:46:07;;;;;;;26.02;12.95;;;;;;;7.09;100.00;99586.50;5035565;28;20022;-82
2021/05/14 01:48:33;;;;;;;24.00;12.15;;;;;;;7.05;100.00;99588.28;5036433;28;20018;-82
2021/05/14 01:51:04;;;;;;;28.77;13.23;;;;;;;7.07;100.00;99589.06;5037639;28;20053;-82
2021/05/14 01:53:29;;;;;;;30.55;13.05;;;;;;;7.03;100.00;99584.03;5036496;28;20029;-82
2021/05/14 01:55:56;;;;;;;31.23;13.20;;;;;;;7.06;100.00;99584.81;5038536;28;20033;-82
2021/05/14 01:58:21;;;;;;;27.15;13.15;;;;;;;7.03;100.00;99579.72;5039466;28;20047;-82
2021/05/14 02:00:46;;;;;;;24.52;12.48;;;;;;;7.03;100.00;99574.56;5039290;28;20030;-82
2021/05/14 02:03:12;;;;;;;25.67;13.00;;;;;;;6.99;100.00;99570.34;5042406;28;20040;-82
2021/05/14 02:05:37;;;;;;;29.83;13.55;;;;;;;7.03;100.00;99571.13;5038248;28;20025;-82
2021/05/14 02:08:02;;;;;;;31.60;14.07;;;;;;;7.04;100.00;99571.09;5035928;28;20469;-82
2021/05/14 02:10:28;;;;;;;27.38;14.82;;;;;;;6.99;100.00;99572.06;5036559;28;20064;-82
2021/05/14 02:12:53;;;;;;;31.35;14.82;;;;;;;7.06;100.00;99577.06;5035540;28;20033;-82
2021/05/14 02:15:18;;;;;;;26.13;13.63;;;;;;;7.04;100.00;99580.56;5037585;28;20025;-81
2021/05/14 02:17:44;;;;;;;29.27;14.52;;;;;;;7.03;100.00;99574.56;5036537;28;20055;-81
2021/05/14 02:20:11;;;;;;;32.40;13.57;;;;;;;7.02;100.00;99567.72;5036949;28;20443;-81
2021/05/14 02:22:36;;;;;;;27.00;13.80;;;;;;;6.97;100.00;99576.41;5040165;28;20405;-81
2021/05/14 02:25:02;;;;;;;28.52;13.68;;;;;;;6.99;100.00;99572.94;5038427;28;20033;-81
2021/05/14 02:27:28;;;;;;;26.17;14.27;;;;;;;7.04;100.00;99568.50;5035239;28;20112;-81
2021/05/14 02:29:53;;;;;;;25.13;13.32;;;;;;;6.97;100.00;99572.09;5037015;28;20491;-81
2021/05/14 02:32:19;;;;;;;26.95;13.30;;;;;;;7.00;100.00;99572.03;5036983;28;20034;-82
2021/05/14 02:34:45;;;;;;;28.85;13.90;;;;;;;6.99;100.00;99562.63;5035359;28;20033;-82
2021/05/14 02:37:11;;;;;;;31.02;12.95;;;;;;;7.02;100.00;99572.88;5035332;28;20021;-81
2021/05/14 02:39:36;;;;;;;34.72;14.57;;;;;;;7.02;100.00;99578.03;5035666;28;20014;-81
2021/05/14 02:42:02;;;;;;;29.42;13.13;;;;;;;7.03;100.00;99576.28;5037135;28;20017;-82
2021/05/14 02:44:27;;;;;;;26.45;12.85;;;;;;;7.03;100.00;99569.41;5038429;28;20025;-82
2021/05/14 02:46:53;;;;;;;33.05;12.98;;;;;;;7.07;100.00;99570.19;5035448;28;20026;-81
2021/05/14 02:49:18;;;;;;;29.17;11.95;;;;;;;7.00;100.00;99566.88;5037128;28;20029;-82
2021/05/14 02:51:44;;;;;;;23.48;11.80;;;;;;;7.01;100.00;99563.41;5035198;28;20032;-82
2021/05/14 02:54:09;;;;;;;22.95;12.45;;;;;;;6.99;100.00;99560.03;5035057;28;20470;-82
2021/05/14 02:56:34;;;;;;;25.38;12.05;;;;;;;6.95;100.00;99557.53;5035706;28;20025;-82
2021/05/14 02:59:00;;;;;;;27.60;12.32;;;;;;;7.00;100.00;99561.72;5036769;28;20413;-82
2021/05/14 03:01:25;;;;;;;20.45;11.18;;;;;;;7.01;100.00;99557.41;5037114;28;20021;-82
2021/05/14 03:03:51;;;;;;;29.30;11.32;;;;;;;7.01;100.00;99558.25;5038476;28;20022;-82
2021/05/14 03:06:16;;;;;;;25.63;11.88;;;;;;;6.97;100.00;99569.53;5037757;28;20025;-81
2021/05/14 03:08:42;;;;;;;22.88;11.25;;;;;;;6.99;100.00;99569.47;5036128;28;20025;-82
2021/05/14 03:11:07;;;;;;;28.48;11.45;;;;;;;6.99;100.00;99556.59;5034794;28;20034;-82
2021/05/14 03:13:32;;;;;;;23.85;10.52;;;;;;;6.99;100.00;99557.47;5035817;28;20025;-82
2021/05/14 03:15:58;;;;;;;24.10;10.43;;;;;;;7.00;100.00;99563.47;5034407;28;20043;-81
2021/05/14 03:18:23;;;;;;;22.02;10.20;;;;;;;6.99;100.00;99552.31;5036000;28;20028;-82
2021/05/14 03:20:48;;;;;;;27.13;10.27;;;;;;;6.99;100.00;99560.03;5036874;28;20470;-82
2021/05/14 03:23:14;;;;;;;20.38;10.07;;;;;;;7.01;100.00;99560.84;5037515;28;20030;-82
2021/05/14 03:25:39;;;;;;;22.85;9.68;;;;;;;6.99;100.00;99557.47;5038477;28;20022;-81
2021/05/14 03:28:04;;;;;;;27.27;11.13;;;;;;;6.96;100.00;99554.94;5035082;28;20075;-82
2021/05/14 03:30:30;;;;;;;23.23;9.23;;;;;;;6.91;100.00;99556.75;5036754;28;20109;-81
2021/05/14 03:32:55;;;;;;;25.00;10.82;;;;;;;6.98;100.00;99555.75;5034021;28;20425;-82
2021/05/14 03:35:20;;;;;;;27.73;9.77;;;;;;;7.03;100.00;99556.50;5034056;28;20390;-81
2021/05/14 03:37:46;;;;;;;23.30;9.27;;;;;;;6.93;100.00;99555.00;5035259;28;20033;-82
2021/05/14 03:40:21;;;;;;;20.75;9.10;;;;;;;6.96;100.00;99552.38;5036424;28;20156;-82
2021/05/14 03:42:46;;;;;;;24.25;9.13;;;;;;;6.96;100.00;99557.53;5038871;28;20021;-82
2021/05/14 03:45:13;;;;;;;24.55;9.25;;;;;;;6.97;100.00;99553.22;5038329;28;20017;-81
2021/05/14 03:47:38;;;;;;;23.65;10.55;;;;;;;6.95;100.00;99560.97;5037362;28;20033;-81
2021/05/14 03:50:04;;;;;;;28.02;9.18;;;;;;;6.98;100.00;99560.06;5034027;28;20024;-81
2021/05/14 03:52:32;;;;;;;34.53;10.43;;;;;;;6.92;100.00;99561.03;5033684;28;20064;-81
2021/05/14 03:54:58;;;;;;;24.45;9.75;;;;;;;6.97;100.00;99560.94;5035399;28;20021;-81
2021/05/14 03:57:23;;;;;;;21.42;10.13;;;;;;;6.94;100.00;99566.16;5035419;28;20025;-81
2021/05/14 03:59:48;;;;;;;28.08;9.80;;;;;;;6.96;100.00;99562.69;5034755;28;20018;-81
2021/05/14 04:02:14;;;;;;;24.00;10.27;;;;;;;6.89;100.00;99558.50;5035564;28;20033;-81
2021/05/14 04:04:39;;;;;;;28.55;9.95;;;;;;;6.94;100.00;99559.28;5036343;28;20371;-81
2021/05/14 04:07:05;;;;;;;28.15;10.70;;;;;;;6.90;100.00;99560.22;5035936;28;20474;-82
2021/05/14 04:09:33;;;;;;;26.02;9.77;;;;;;;6.92;100.00;99564.44;5033605;28;20064;-82
2021/05/14 04:14:30;;;;;;;26.13;10.20;;;;;;;6.95;100.00;99558.38;5034826;28;20025;-82
2021/05/14 04:17:00;;;;;;;31.42;10.75;;;;;;;6.95;100.00;99555.81;5034120;28;20029;-81
2021/05/14 04:19:26;;;;;;;26.50;10.82;;;;;;;6.93;100.00;99555.00;5035590;28;20036;-82
2021/05/14 04:21:53;;;;;;;31.88;10.60;;;;;;;6.91;100.00;99555.03;5035561;28;20028;-81
2021/05/14 04:24:21;;;;;;;28.52;10.82;;;;;;;6.92;100.00;99559.28;5037346;28;20389;-82
2021/05/14 04:26:48;;;;;;;25.98;10.27;;;;;;;6.97;100.00;99554.06;5036287;28;20017;-81
2021/05/14 04:29:13;;;;;;;26.95;11.20;;;;;;;6.97;100.00;99560.94;5033093;28;20040;-82
2021/05/14 04:31:38;;;;;;;27.80;10.32;;;;;;;6.96;100.00;99562.69;5034485;28;20037;-81
2021/05/14 04:34:03;;;;;;;26.40;9.65;;;;;;;6.94;100.00;99569.59;5033333;28;20033;-81
2021/05/14 04:36:29;;;;;;;31.77;10.50;;;;;;;7.02;100.00;99567.72;5033358;28;20017;-81
2021/05/14 04:38:54;;;;;;;33.97;10.90;;;;;;;6.99;100.00;99565.19;5034209;28;20064;-81
2021/05/14 04:41:19;;;;;;;29.70;10.20;;;;;;;7.00;100.00;99564.31;5035261;28;20037;-82
2021/05/14 04:43:44;;;;;;;35.45;9.70;;;;;;;7.04;100.00;99559.94;5037029;28;20021;-82
2021/05/14 04:46:10;;;;;;;33.30;10.57;;;;;;;7.04;100.00;99553.03;5035918;28;20031;-81
2021/05/14 04:48:35;;;;;;;28.10;10.52;;;;;;;7.02;100.00;99559.97;5037966;28;20026;-81
2021/05/14 04:51:01;;;;;;;23.63;9.07;;;;;;;7.01;100.00;99562.56;5037948;28;20025;-82
2021/05/14 04:53:30;;;;;;;35.03;11.45;;;;;;;7.02;100.00;99572.88;5037543;28;20095;-83
2021/05/14 04:55:56;;;;;;;29.35;9.50;;;;;;;7.06;100.00;99579.66;5037252;28;20025;-82
2021/05/14 04:58:21;;;;;;;25.60;10.00;;;;;;;7.11;100.00;99572.69;5037234;28;20390;-82
2021/05/14 05:00:46;;;;;;;34.05;10.80;;;;;;;7.03;100.00;99571.97;5037387;28;20065;-82
2021/05/14 05:03:12;;;;;;;33.55;9.13;;;;;;;6.98;100.00;99580.69;5037715;28;20025;-82
2021/05/14 05:05:37;;;;;;;29.23;10.68;;;;;;;7.00;100.00;99574.63;5036720;28;20028;-81
2021/05/14 05:08:03;;;;;;;28.50;9.23;;;;;;;6.99;100.00;99575.50;5037371;28;20060;-82
2021/05/14 05:10:28;;;;;;;32.70;9.45;;;;;;;7.11;100.00;99571.81;5037741;28;20125;-82
2021/05/14 05:12:53;;;;;;;27.65;9.95;;;;;;;7.05;100.00;99569.34;5038611;28;20072;-81
2021/05/14 05:15:19;;;;;;;23.50;9.05;;;;;;;7.11;100.00;99567.53;5037865;28;20116;-82
2021/05/14 05:17:44;;;;;;;26.73;9.63;;;;;;;7.15;100.00;99558.00;5037576;28;20033;-82
2021/05/14 05:20:10;;;;;;;33.03;9.57;;;;;;;7.15;100.00;99569.16;5039615;28;20428;-81
2021/05/14 05:22:35;;;;;;;30.55;9.05;;;;;;;7.13;100.00;99567.47;5040586;28;20068;-81
2021/05/14 05:25:01;;;;;;;34.22;8.95;;;;;;;7.17;100.00;99563.09;5038928;28;20021;-81
2021/05/14 05:27:27;;;;;;;20.77;8.02;;;;;;;7.08;100.00;99567.59;5039277;28;20021;-82
2021/05/14 05:29:52;;;;;;;27.45;9.25;;;;;;;7.17;100.00;99573.44;5040052;28;20493;-81
2021/05/14 05:32:17;;;;;;;26.63;8.88;;;;;;;7.19;100.00;99575.09;5041923;28;20116;-81
2021/05/14 05:34:42;;;;;;;32.85;9.02;;;;;;;7.20;100.00;99575.94;5040381;28;20180;-81
2021/05/14 05:37:08;;;;;;;27.85;8.18;;;;;;;7.19;100.00;99563.94;5040911;28;20025;-82
2021/05/14 05:39:33;;;;;;;25.20;8.77;;;;;;;7.29;100.00;99575.75;5038888;28;20031;-82
2021/05/14 05:41:59;;;;;;;26.92;8.30;;;;;;;7.32;100.00;99576.53;5038770;28;20111;-82
2021/05/14 05:44:24;;;;;;;27.73;8.45;;;;;;;7.29;100.00;99580.91;5039396;28;20469;-82
2021/05/14 05:46:50;;;;;;;23.05;8.85;;;;;;;7.42;100.00;99582.38;5039924;28;20026;-82
2021/05/14 05:49:15;;;;;;;23.70;8.43;;;;;;;7.49;100.00;99594.25;5042581;28;20051;-82
2021/05/14 05:51:40;;;;;;;19.85;7.45;;;;;;;7.41;100.00;99593.56;5042132;28;20104;-82
2021/05/14 05:54:08;;;;;;;22.98;7.95;;;;;;;7.52;100.00;99590.75;5041116;28;20052;-82
2021/05/14 05:56:34;;;;;;;26.52;7.68;;;;;;;7.42;100.00;99595.28;5041685;28;20025;-81
2021/05/14 05:58:59;;;;;;;30.90;8.45;;;;;;;7.50;100.00;99593.38;5038433;28;20036;-82
2021/05/14 06:01:24;;;;;;;23.20;7.05;;;;;;;7.63;100.00;99595.69;5038349;28;20025;-83
2021/05/14 06:03:50;;;;;;;24.30;7.80;;;;;;;7.60;100.00;99596.59;5037945;28;20028;-83
2021/05/14 06:06:15;;;;;;;20.17;7.80;;;;;;;7.65;100.00;99597.34;5037655;28;20025;-83
2021/05/14 06:08:43;;;;;;;23.45;7.47;;;;;;;7.58;100.00;99604.38;5037586;28;20052;-82
2021/05/14 06:11:08;;;;;;;34.67;8.90;;;;;;;7.73;100.00;99595.47;5037415;28;20036;-84
2021/05/14 06:13:35;;;;;;;24.23;8.23;;;;;;;7.89;100.00;99597.69;5037337;28;20029;-84
2021/05/14 06:16:03;;;;;;;24.98;7.72;;;;;;;7.91;100.00;99599.34;5037136;28;20060;-83
2021/05/14 06:18:35;;;;;;;18.88;6.38;;;;;;;7.74;100.00;99604.03;5035811;28;20069;-84
2021/05/14 06:21:01;;;;;;;24.02;7.35;;;;;;;7.84;100.00;99597.78;5035708;28;20489;-83
2021/05/14 06:23:26;;;;;;;20.33;6.50;;;;;;;7.85;100.00;99602.09;5037501;28;20041;-83
2021/05/14 06:25:54;;;;;;;26.80;7.82;;;;;;;7.97;100.00;99604.34;5036266;28;20025;-83
2021/05/14 06:28:21;;;;;;;22.02;6.97;;;;;;;7.92;100.00;99601.06;5036906;28;20021;-84
2021/05/14 06:30:47;;;;;;;21.42;6.57;;;;;;;7.96;100.00;99605.25;5036920;28;20470;-83
2021/05/14 06:33:12;;;;;;;21.65;7.43;;;;;;;7.95;100.00;99610.47;5036265;28;20087;-84
2021/05/14 06:35:39;;;;;;;26.92;7.07;;;;;;;8.00;100.00;99611.19;5035797;28;20394;-84
2021/05/14 06:38:05;;;;;;;23.90;6.88;;;;;;;7.91;100.00;99612.25;5036210;28;20151;-83
2021/05/14 06:40:31;;;;;;;23.75;7.68;;;;;;;7.89;100.00;99606.28;5036478;28;20108;-82
2021/05/14 06:42:56;;;;;;;24.10;6.85;;;;;;;7.93;100.00;99605.31;5036592;28;20481;-82
2021/05/14 06:45:21;;;;;;;17.95;6.18;;;;;;;8.01;100.00;99607.75;5036956;28;20385;-82
2021/05/14 06:47:47;;;;;;;27.95;6.50;;;;;;;7.98;100.00;99607.81;5037814;28;20025;-82
2021/05/14 06:50:12;;;;;;;22.30;6.88;;;;;;;8.00;100.00;99604.28;5037016;28;20043;-84
2021/05/14 06:52:37;;;;;;;24.70;6.70;;;;;;;7.98;100.00;99607.81;5035424;28;20091;-83
2021/05/14 06:55:09;;;;;;;20.63;6.85;;;;;;;7.93;100.00;99604.47;5035708;28;20025;-82
2021/05/14 06:57:36;;;;;;;29.63;6.63;;;;;;;8.06;100.00;99605.88;5078913;22;20056;-82
2021/05/14 07:00:04;;;;;;;20.40;6.30;;;;;;;8.10;100.00;99602.38;5038626;28;20064;-82
2021/05/14 07:02:29;;;;;;;27.25;6.57;;;;;;;8.12;100.00;99602.31;5039129;28;20086;-82
2021/05/14 07:04:54;;;;;;;27.42;6.43;;;;;;;8.06;100.00;99601.56;5039381;28;20032;-82
2021/05/14 07:07:19;;;;;;;20.83;5.65;;;;;;;8.10;100.00;99597.19;5049293;28;20036;-82
2021/05/14 07:09:45;;;;;;;21.80;6.53;;;;;;;8.20;100.00;99608.16;5058824;28;20564;-82
2021/05/14 07:12:10;;;;;;;17.33;5.43;;;;;;;8.15;100.00;99610.00;5058950;28;20028;-82
2021/05/14 07:14:36;;;;;;;18.95;4.85;;;;;;;8.07;100.00;99605.88;5058882;28;20040;-82
2021/05/14 07:17:01;;;;;;;18.95;5.78;;;;;;;8.08;100.00;99612.72;5059693;28;20545;-83
2021/05/14 07:19:27;;;;;;;25.15;5.88;;;;;;;8.10;100.00;99610.13;5058880;28;20070;-83
2021/05/14 07:21:53;;;;;;;18.00;5.50;;;;;;;7.97;100.00;99612.09;5059054;28;20096;-82
2021/05/14 07:24:18;;;;;;;19.23;5.65;;;;;;;7.92;100.00;99613.13;5059580;28;20524;-82
2021/05/14 07:26:44;;;;;;;20.33;5.25;;;;;;;7.79;100.00;99612.56;5060313;28;20087;-82
2021/05/14 07:29:09;;;;;;;23.05;5.80;;;;;;;7.90;100.00;99622.63;5058940;28;20027;-83
2021/05/14 07:31:34;;;;;;;29.25;6.10;;;;;;;7.72;100.00;99624.72;5058829;28;20377;-82
2021/05/14 07:34:00;;;;;;;23.38;5.50;;;;;;;7.73;100.00;99623.00;5076920;28;20024;-82
2021/05/14 07:36:26;;;;;;;21.25;6.43;;;;;;;7.72;100.00;99624.72;5059173;28;20471;-83
2021/05/14 07:38:53;;;;;;;25.17;6.13;;;;;;;7.74;100.00;99627.28;5079039;28;20476;-82
2021/05/14 07:41:19;;;;;;;22.38;6.90;;;;;;;7.67;100.00;99623.13;5058615;28;20081;-83
2021/05/14 07:43:44;;;;;;;23.80;6.28;;;;;;;7.69;100.00;99629.09;5059549;28;20094;-83
2021/05/14 07:46:10;;;;;;;16.55;5.25;;;;;;;7.68;100.00;99627.41;5061371;28;20054;-82
2021/05/14 07:48:35;;;;;;;26.98;6.05;;;;;;;7.55;100.00;99622.50;5081053;28;20021;-83
2021/05/14 07:51:00;;;;;;;21.40;7.10;;;;;;;7.58;100.00;99627.59;5080881;28;20052;-82
2021/05/14 07:53:27;;;;;;;22.85;6.70;;;;;;;7.65;100.00;99614.56;5081781;28;20028;-82
2021/05/14 07:55:52;;;;;;;24.48;5.95;;;;;;;7.69;100.00;99623.94;5060346;28;20119;-82
2021/05/14 07:58:22;;;;;;;24.92;7.22;;;;;;;7.69;100.00;99623.94;5061915;28;20059;-82
2021/05/14 08:00:49;;;;;;;18.52;6.20;;;;;;;7.72;100.00;99629.88;5060928;28;20056;-83
2021/05/14 08:03:18;;;;;;;20.77;6.07;;;;;;;7.64;100.00;99639.53;5078553;28;20484;-83
2021/05/14 08:05:47;;;;;;;27.13;6.60;;;;;;;7.59;100.00;99644.78;5078754;28;20036;-84
2021/05/14 08:08:14;;;;;;;24.67;6.65;;;;;;;7.45;100.00;99649.38;5077736;28;20108;-83
2021/05/14 08:10:43;;;;;;;25.92;6.90;;;;;;;7.53;100.00;99651.78;5060761;28;20036;-82
2021/05/14 08:13:08;;;;;;;28.83;6.78;;;;;;;7.60;100.00;99653.38;5059421;28;20020;-82
2021/05/14 08:15:33;;;;;;;22.80;7.30;;;;;;;7.45;100.00;99648.50;5059392;28;20433;-82
2021/05/14 08:17:59;;;;;;;22.33;6.25;;;;;;;7.49;100.00;99650.16;5060159;28;20053;-83
2021/05/14 08:20:25;;;;;;;22.05;6.22;;;;;;;7.48;100.00;99651.91;5078628;28;20024;-82
2021/05/14 08:22:51;;;;;;;22.38;6.88;;;;;;;7.47;100.00;99657.94;5059797;28;20229;-82
2021/05/14 08:25:17;;;;;;;24.95;7.22;;;;;;;7.43;100.00;99661.47;5060697;28;20020;-83
2021/05/14 08:27:43;;;;;;;25.48;7.38;;;;;;;7.38;100.00;99671.00;5058055;28;20036;-82
2021/05/14 08:30:09;;;;;;;25.92;6.97;;;;;;;7.47;100.00;99672.56;5057325;28;20091;-82
2021/05/14 08:32:35;;;;;;;32.67;7.20;;;;;;;7.41;100.00;99673.53;5075796;28;20377;-83
2021/05/14 08:35:00;;;;;;;22.08;6.53;;;;;;;7.51;100.00;99669.91;5058088;28;20041;-83
2021/05/14 08:37:25;;;;;;;24.75;6.75;;;;;;;7.45;100.00;99664.88;5074133;28;20408;-83
2021/05/14 08:39:51;;;;;;;21.38;6.60;;;;;;;7.56;100.00;99662.06;5056731;28;20017;-82
2021/05/14 08:42:16;;;;;;;24.40;6.70;;;;;;;7.53;100.00;99662.13;5057597;28;20032;-83
2021/05/14 08:44:43;;;;;;;23.02;6.55;;;;;;;7.50;100.00;99663.03;5074606;28;20047;-83
2021/05/14 08:47:08;;;;;;;24.17;7.18;;;;;;;7.45;100.00;99670.03;5056724;28;20025;-82
2021/05/14 08:49:34;;;;;;;21.10;6.40;;;;;;;7.35;100.00;99668.47;5075675;28;20032;-83
2021/05/14 08:52:04;;;;;;;25.73;6.50;;;;;;;7.44;100.00;99676.03;5056863;28;20031;-83
2021/05/14 08:54:30;;;;;;;20.55;5.60;;;;;;;7.41;100.00;99668.38;5062011;28;20483;-83
2021/05/14 08:56:56;;;;;;;22.48;5.97;;;;;;;7.36;100.00;99668.47;5081542;28;20033;-83
2021/05/14 08:59:21;;;;;;;19.75;6.05;;;;;;;7.25;100.00;99672.97;5081986;28;20024;-83
2021/05/14 09:01:49;;;;;;;20.05;6.75;;;;;;;7.41;100.00;99668.38;5081770;28;20024;-83
2021/05/14 09:04:16;;;;;;;20.88;6.60;;;;;;;7.40;100.00;99666.69;5063433;28;20130;-82
2021/05/14 09:06:43;;;;;;;21.25;6.95;;;;;;;7.44;100.00;99668.31;5063103;28;20016;-82
2021/05/14 09:09:11;;;;;;;19.95;7.10;;;;;;;7.50;100.00;99668.19;5062867;28;20016;-82
2021/05/14 09:11:48;;;;;;;22.77;6.78;;;;;;;7.43;100.00;99669.19;5063101;28;20036;-82
2021/05/14 09:14:33;;;;;;;18.63;6.32;;;;;;;7.24;100.00;99680.75;5063693;28;20055;-82
2021/05/14 09:17:06;;;;;;;14.73;6.45;;;;;;;7.40;100.00;99671.84;5063744;28;20031;-82
2021/05/14 09:19:32;;;;;;;20.90;6.72;;;;;;;7.37;100.00;99671.91;5063846;28;20036;-82
2021/05/14 09:22:17;;;;;;;15.10;6.82;;;;;;;7.53;100.00;99675.88;5080341;28;20025;-82
2021/05/14 09:24:48;;;;;;;;;;;;;;;7.30;100.00;99676.31;5062572;28;20060;-82
2021/05/14 09:27:16;;;;;;;21.27;7.97;;;;;;;7.36;100.00;99665.06;5062152;28;19908;-82
2021/05/14 09:29:42;;;;;;;18.23;8.55;;;;;;;7.33;100.00;99673.69;5062188;28;20024;-82
2021/05/14 09:32:18;;;;;;;16.58;7.70;;;;;;;7.22;100.00;99682.50;5079994;28;20056;-83
2021/05/14 09:34:53;;;;;;;18.50;8.32;;;;;;;7.27;100.00;99685.84;5062322;28;20111;-83
2021/05/14 09:37:19;;;;;;;18.77;7.93;;;;;;;7.26;100.00;99689.28;5062128;28;20503;-83
2021/05/14 09:39:45;;;;;;;17.02;9.02;;;;;;;7.30;100.00;99683.22;5080191;28;20103;-83
2021/05/14 09:42:10;;;;;;;20.88;9.13;;;;;;;7.33;100.00;99686.59;5063237;28;20119;-83
2021/05/14 09:44:36;;;;;;;24.60;10.30;;;;;;;7.29;100.00;99674.59;5062660;28;20060;-82
2021/05/14 09:47:02;;;;;;;19.50;9.90;;;;;;;7.23;100.00;99686.78;5063632;28;20021;-82
2021/05/14 09:49:28;;;;;;;21.55;9.63;;;;;;;7.36;100.00;99685.69;5064955;28;20028;-82
2021/05/14 09:52:09;;;;;;;22.30;11.13;;;;;;;7.41;100.00;99681.25;5062931;28;20032;-82
2021/05/14 09:54:42;;;;;;;24.00;11.25;;;;;;;7.33;100.00;99691.75;5063054;28;20089;-82
2021/05/14 09:59:58;;;;;;;21.52;10.10;;;;;;;7.29;100.00;99687.50;5080998;28;20042;-82
2021/05/14 10:02:29;;;;;;;20.13;11.07;;;;;;;7.45;100.00;99684.63;5081723;28;20035;-82
2021/05/14 10:04:56;;;;;;;20.08;11.10;;;;;;;7.55;100.00;99693.91;5060896;28;20507;-82
2021/05/14 10:07:25;;;;;;;20.40;11.05;;;;;;;7.47;100.00;99688.88;5059404;28;20033;-82
2021/05/14 10:09:55;;;;;;;20.90;11.20;;;;;;;7.60;100.00;99692.06;5058881;28;20021;-82
2021/05/14 10:12:21;;;;;;;20.63;10.30;;;;;;;7.57;100.00;99693.00;5058778;28;20047;-82
2021/05/14 10:14:47;;;;;;;19.05;10.30;;;;;;;7.65;100.00;99690.25;5059060;28;20020;-82
2021/05/14 10:17:13;;;;;;;22.05;10.38;;;;;;;7.74;100.00;99686.66;5076923;28;20507;-82
2021/05/14 10:19:40;;;;;;;17.75;10.60;;;;;;;7.76;100.00;99690.06;5058919;28;20028;-82
2021/05/14 10:22:08;;;;;;;24.38;10.55;;;;;;;7.72;100.00;99694.41;5058940;28;20031;-83
2021/05/14 10:24:57;;;;;;;22.60;10.77;;;;;;;7.69;100.00;99694.47;5059889;28;20025;-83
2021/05/14 10:27:23;;;;;;;20.60;10.45;;;;;;;7.74;100.00;99692.66;5060436;28;20072;-82
2021/05/14 10:29:53;;;;;;;22.38;10.30;;;;;;;7.72;100.00;99688.41;5077330;28;20020;-82
2021/05/14 10:32:43;;;;;;;21.92;10.38;;;;;;;7.70;100.00;99695.34;5061263;28;20044;-82
2021/05/14 10:35:11;;;;;;;21.55;10.60;;;;;;;7.73;100.00;99690.13;5058360;28;20397;-82
2021/05/14 10:37:50;;;;;;;17.60;10.80;;;;;;;7.81;100.00;99693.38;5042422;28;20056;-83
2021/05/14 10:40:39;;;;;;;21.02;10.50;;;;;;;7.93;100.00;99695.69;5076853;28;20507;-81
2021/05/14 10:43:05;;;;;;;19.23;9.90;;;;;;;7.79;100.00;99692.56;5063538;28;20033;-82
2021/05/14 10:45:39;;;;;;;21.50;10.88;;;;;;;7.91;100.00;99699.19;5076369;28;20025;-82
2021/05/14 10:48:18;;;;;;;34.35;10.25;;;;;;;7.72;100.00;99703.88;5058184;28;20044;-82
2021/05/14 10:50:51;;;;;;;21.67;10.07;;;;;;;7.74;100.00;99695.22;5058126;28;20028;-82
2021/05/14 10:53:17;;;;;;;21.80;10.65;;;;;;;7.78;100.00;99701.19;5057954;28;20024;-82
2021/05/14 10:55:44;;;;;;;20.58;10.65;;;;;;;7.83;100.00;99694.19;5075835;28;20039;-82
2021/05/14 10:58:09;;;;;;;20.55;9.95;;;;;;;7.69;100.00;99706.53;5076209;28;20052;-82
2021/05/14 11:00:36;;;;;;;21.95;9.20;;;;;;;7.79;100.00;99695.16;5058906;28;20476;-82
2021/05/14 11:03:14;;;;;;;34.25;11.10;;;;;;;7.99;100.00;99698.13;5060173;28;20116;-82
2021/05/14 11:05:44;;;;;;;27.52;9.85;;;;;;;7.98;100.00;99695.59;5070029;28;20024;-81
2021/05/14 11:08:11;;;;;;;19.42;9.27;;;;;;;7.87;100.00;99698.41;5065288;28;20036;-82
2021/05/14 11:10:37;;;;;;;21.85;9.55;;;;;;;7.89;100.00;99698.38;5063981;28;20020;-82
2021/05/14 11:13:34;;;;;;;19.08;9.43;;;;;;;7.93;100.00;99703.44;5075522;28;20090;-83
2021/05/14 11:16:33;;;;;;;16.33;9.02;;;;;;;7.92;100.00;99703.50;5057823;28;20024;-82
2021/05/14 11:18:59;;;;;;;21.17;9.65;;;;;;;7.97;100.00;99706.78;5057983;28;20468;-83
2021/05/14 11:22:00;;;;;;;19.98;9.52;;;;;;;7.90;100.00;99711.25;5075954;28;20104;-83
2021/05/14 11:24:31;;;;;;;24.63;9.48;;;;;;;7.87;100.00;99707.88;5075620;28;20435;-83
2021/05/14 11:27:03;;;;;;;26.52;10.32;;;;;;;7.84;100.00;99709.63;5057333;28;20020;-83
2021/05/14 11:29:37;;;;;;;22.23;10.13;;;;;;;7.84;100.00;99714.81;5075312;28;20028;-83